Terminal Aerodrome Forecast
Issued by NWS

Home | Current Version | Previous Version | Text Only | Print | Product List | Glossary On
Versions: 1 2 3 4 5 6 7 8 9 10 11 12
000
FTUS42 KMLB 221739
TAFTIX
TAF
KTIX 221739Z 2218/2318 13013KT P6SM SCT025 BKN035
     FM230000 14006KT P6SM SCT030 OVC100
     FM230900 18003KT P6SM SCT020 BKN040 OVC080
      TEMPO 2310/2314 3SM SHRA BKN010 OVC020
     FM231400 21008KT P6SM VCSH BKN020 OVC040
      TEMPO 2314/2318 5SM -RA BR BKN012 OVC025=

USA.gov is the U.S. government's official web portal to all federal, state and local government web resources and services.